createdAt,value
2019-02-17T00:06:26.862Z,970.8
2019-02-17T00:16:30.370Z,970.8
2019-02-17T00:26:33.867Z,970.8
2019-02-17T00:36:37.399Z,970.8
2019-02-17T00:46:40.895Z,970.8
2019-02-17T00:56:44.407Z,970.8
2019-02-17T01:06:47.950Z,970.8
2019-02-17T01:16:51.460Z,970.8
2019-02-17T01:26:54.954Z,970.9
2019-02-17T01:36:58.466Z,970.8
2019-02-17T01:47:01.996Z,970.7
2019-02-17T01:57:05.511Z,970.8
2019-02-17T02:07:09.029Z,970.8
2019-02-17T02:17:12.538Z,970.7
2019-02-17T02:27:16.033Z,970.8
2019-02-17T02:37:19.538Z,970.7
2019-02-17T02:47:23.040Z,970.7
2019-02-17T02:57:26.535Z,970.7
2019-02-17T03:07:30.055Z,970.6
2019-02-17T03:17:33.574Z,970.6
2019-02-17T03:27:37.098Z,970.6
2019-02-17T03:37:40.634Z,970.8
2019-02-17T03:47:44.190Z,970.7
2019-02-17T03:58:18.050Z,970.7
2019-02-17T04:08:21.561Z,970.9
2019-02-17T04:18:25.064Z,970.9
2019-02-17T04:28:28.567Z,970.9
2019-02-17T04:38:32.062Z,970.9
2019-02-17T04:48:35.571Z,970.9
2019-02-17T04:58:39.049Z,970.8
2019-02-17T05:08:42.571Z,970.8
2019-02-17T05:18:46.126Z,970.8
2019-02-17T05:28:50.653Z,970.8
2019-02-17T05:38:54.165Z,970.9
2019-02-17T05:48:57.663Z,970.8
2019-02-17T05:59:01.138Z,970.8
2019-02-17T06:09:04.652Z,970.8
2019-02-17T06:19:08.175Z,970.7
2019-02-17T06:29:11.695Z,970.7
2019-02-17T06:39:15.216Z,970.7
2019-02-17T06:49:18.741Z,970.8
2019-02-17T06:59:22.226Z,970.9
2019-02-17T07:09:25.756Z,970.8
2019-02-17T07:19:29.269Z,970.7
2019-02-17T07:29:32.769Z,970.7
2019-02-17T07:39:36.277Z,970.6
2019-02-17T07:49:39.778Z,970.5
2019-02-17T07:59:43.255Z,970.4
2019-02-17T08:09:46.755Z,970.3
2019-02-17T08:19:50.282Z,970.1
2019-02-17T08:29:53.785Z,970
2019-02-17T08:39:57.281Z,969.9
2019-02-17T08:50:00.790Z,969.8
2019-02-17T09:00:04.281Z,969.7
2019-02-17T09:10:09.354Z,969.6
2019-02-17T09:20:12.884Z,969.5
2019-02-17T09:30:16.407Z,969.4
2019-02-17T09:40:19.894Z,969.4
2019-02-17T09:50:23.384Z,969.3
2019-02-17T10:00:26.883Z,969.3
2019-02-17T10:10:30.399Z,969.3
2019-02-17T10:20:33.915Z,969.2
2019-02-17T10:30:37.431Z,969.2
2019-02-17T10:40:40.949Z,968.9
2019-02-17T10:50:44.450Z,968.7
2019-02-17T11:00:48.238Z,968.7
2019-02-17T11:10:51.755Z,968.5
2019-02-17T11:20:55.292Z,968.4
2019-02-17T11:30:58.817Z,968.2
2019-02-17T11:41:02.352Z,968
2019-02-17T11:51:05.876Z,967.8
2019-02-17T12:01:09.363Z,967.8
2019-02-17T12:11:12.915Z,967.7
2019-02-17T12:21:16.521Z,967.5
2019-02-17T12:31:20.015Z,967.4
2019-02-17T12:41:23.516Z,967.3
2019-02-17T12:51:27.043Z,967.1
2019-02-17T13:01:30.536Z,967
2019-02-17T13:11:34.029Z,966.8
2019-02-17T13:21:37.536Z,966.7
2019-02-17T13:31:41.042Z,966.5
2019-02-17T13:41:44.567Z,966.3
2019-02-17T13:51:48.091Z,966.2
2019-02-17T14:01:51.574Z,966.1
2019-02-17T14:11:55.071Z,966
2019-02-17T14:21:58.583Z,965.8
2019-02-17T14:32:02.062Z,965.8
2019-02-17T14:42:05.557Z,965.7
2019-02-17T14:52:09.082Z,965.8
2019-02-17T15:02:12.603Z,965.7
2019-02-17T15:12:16.119Z,965.6
2019-02-17T15:22:19.635Z,965.4
2019-02-17T15:32:23.134Z,965.5
2019-02-17T15:42:27.662Z,965.2
2019-02-17T15:52:31.180Z,965.2
2019-02-17T16:02:34.690Z,965.2
2019-02-17T16:12:38.231Z,965.2
2019-02-17T16:22:41.733Z,965.2
2019-02-17T16:32:45.310Z,965.2
2019-02-17T16:42:48.830Z,965.2
2019-02-17T16:52:52.327Z,965.2
2019-02-17T17:02:55.848Z,965.4
2019-02-17T17:12:59.346Z,965.5
2019-02-17T17:23:05.393Z,965.6
2019-02-17T17:33:08.899Z,965.6
2019-02-17T17:43:12.412Z,965.8
2019-02-17T17:53:15.928Z,965.8
2019-02-17T18:03:19.442Z,965.9
2019-02-17T18:13:22.945Z,966
2019-02-17T18:23:26.463Z,966
2019-02-17T18:33:30.073Z,966
2019-02-17T18:43:33.599Z,966.1
2019-02-17T18:53:37.110Z,966.1
2019-02-17T19:03:40.634Z,966
2019-02-17T19:13:44.127Z,966
2019-02-17T19:23:47.643Z,966
2019-02-17T19:33:51.147Z,966
2019-02-17T19:43:54.655Z,966.1
2019-02-17T19:53:58.148Z,966.2
2019-02-17T20:04:01.685Z,966.2
2019-02-17T20:14:05.210Z,966.2
2019-02-17T20:24:08.772Z,966.3
2019-02-17T20:34:14.942Z,966.3
2019-02-17T20:44:18.471Z,966.3
2019-02-17T20:54:21.992Z,966.3
2019-02-17T21:04:25.538Z,966.4
2019-02-17T21:14:29.061Z,966.4
2019-02-17T21:24:32.597Z,966.4
2019-02-17T21:34:36.096Z,966.4
2019-02-17T21:44:39.595Z,966.4
2019-02-17T21:54:43.121Z,966.3
2019-02-17T22:04:46.620Z,966.3
2019-02-17T22:14:50.079Z,966.4
2019-02-17T22:24:53.576Z,966.4
2019-02-17T22:34:57.073Z,966.4
2019-02-17T22:45:00.685Z,966.4
2019-02-17T22:55:04.169Z,966.5
2019-02-17T23:05:07.746Z,966.5
2019-02-17T23:15:11.231Z,966.6
2019-02-17T23:25:14.735Z,966.6
2019-02-17T23:35:18.238Z,966.6
2019-02-17T23:45:21.760Z,966.7
2019-02-17T23:55:25.306Z,966.6
